createdAt,value
2018-10-03T00:00:01.333Z,99531.25
2018-10-03T00:02:31.135Z,99539.35
2018-10-03T00:05:02.008Z,99541.97
2018-10-03T00:07:32.448Z,99549.20
2018-10-03T00:10:02.570Z,99510.36
2018-10-03T00:12:32.093Z,99538.22
2018-10-03T00:15:02.033Z,99545.41
2018-10-03T00:17:33.088Z,99542.16
2018-10-03T00:20:03.491Z,99541.73
2018-10-03T00:22:34.579Z,99551.80
2018-10-03T00:25:04.897Z,99551.87
2018-10-03T00:27:34.711Z,99552.52
2018-10-03T00:30:05.113Z,99551.93
2018-10-03T00:32:35.819Z,99553.20
2018-10-03T00:35:05.379Z,99548.95
2018-10-03T00:37:35.367Z,99547.05
2018-10-03T00:40:05.310Z,99534.25
2018-10-03T00:42:35.116Z,99540.18
2018-10-03T00:45:05.118Z,99542.73
2018-10-03T00:47:35.489Z,99532.38
2018-10-03T00:50:05.543Z,99537.55
2018-10-03T00:52:35.248Z,99539.88
2018-10-03T00:55:05.949Z,99539.75
2018-10-03T00:57:35.572Z,99544.84
2018-10-03T01:00:06.234Z,99549.68
2018-10-03T01:02:36.052Z,99540.82
2018-10-03T01:05:05.908Z,99545.44
2018-10-03T01:07:35.924Z,99559.73
2018-10-03T01:10:06.467Z,99543.87
2018-10-03T01:12:37.145Z,99539.70
2018-10-03T01:15:07.806Z,99538.48
2018-10-03T01:17:37.576Z,99544.16
2018-10-03T01:20:07.458Z,99541.41
2018-10-03T01:22:37.435Z,99535.89
2018-10-03T01:25:08.338Z,99539.62
2018-10-03T01:27:37.955Z,99539.97
2018-10-03T01:30:08.287Z,99543.41
2018-10-03T01:32:38.006Z,99537.93
2018-10-03T01:35:08.679Z,99533.91
2018-10-03T01:37:39.407Z,99526.02
2018-10-03T01:40:09.189Z,99537.00
2018-10-03T01:42:39.894Z,99538.23
2018-10-03T01:45:10.996Z,99534.58
2018-10-03T01:47:41.000Z,99535.17
2018-10-03T01:50:12.004Z,99533.91
2018-10-03T01:52:42.452Z,99537.72
2018-10-03T01:55:12.458Z,99534.70
2018-10-03T01:57:42.499Z,99536.06
2018-10-03T02:00:12.866Z,99532.78
2018-10-03T02:02:43.164Z,99533.41
2018-10-03T02:05:13.272Z,99533.30
2018-10-03T02:07:43.032Z,99532.36
2018-10-03T02:10:13.073Z,99540.22
2018-10-03T02:12:42.761Z,99539.41
2018-10-03T02:15:13.857Z,99549.00
2018-10-03T02:17:43.851Z,99555.06
2018-10-03T02:20:14.718Z,99564.35
2018-10-03T02:22:45.260Z,99555.84
2018-10-03T02:25:15.194Z,99567.59
2018-10-03T02:27:45.190Z,99560.46
2018-10-03T02:30:15.252Z,99576.84
2018-10-03T02:32:45.209Z,99573.13
2018-10-03T02:35:16.378Z,99572.00
2018-10-03T02:37:47.301Z,99576.63
2018-10-03T02:40:18.360Z,99581.29
2018-10-03T02:42:48.439Z,99582.47
2018-10-03T02:45:21.504Z,99573.72
2018-10-03T02:47:53.020Z,99574.66
2018-10-03T02:50:23.770Z,99583.22
2018-10-03T02:52:54.275Z,99592.05
2018-10-03T02:55:24.725Z,99596.42
2018-10-03T02:57:55.240Z,99603.88
2018-10-03T03:00:25.392Z,99606.20
2018-10-03T03:02:55.494Z,99609.27
2018-10-03T03:05:25.326Z,99613.52
2018-10-03T03:07:55.740Z,99620.45
2018-10-03T03:10:26.088Z,99621.70
2018-10-03T03:12:55.742Z,99631.80
2018-10-03T03:15:26.695Z,99644.72
2018-10-03T03:17:56.589Z,99633.11
2018-10-03T03:20:27.245Z,99631.41
2018-10-03T03:22:57.902Z,99637.49
2018-10-03T03:25:27.557Z,99640.33
2018-10-03T03:27:57.696Z,99651.66
2018-10-03T03:30:29.037Z,99641.58
2018-10-03T03:32:59.556Z,99640.61
2018-10-03T03:35:30.133Z,99637.13
2018-10-03T03:38:00.066Z,99634.63
2018-10-03T03:40:29.793Z,99649.15
2018-10-03T03:42:59.890Z,99645.06
2018-10-03T03:45:29.637Z,99646.38
2018-10-03T03:47:59.713Z,99636.88
2018-10-03T03:51:54.329Z,99658.66
2018-10-03T03:54:24.263Z,99647.97
2018-10-03T03:56:55.678Z,99651.97
2018-10-03T03:59:25.529Z,99652.20
2018-10-03T04:01:55.465Z,99652.63
2018-10-03T04:04:25.730Z,99643.73
2018-10-03T04:06:55.849Z,99641.10
2018-10-03T04:09:25.725Z,99648.59
2018-10-03T04:11:55.827Z,99658.54
2018-10-03T04:14:26.550Z,99656.66
2018-10-03T04:16:56.099Z,99648.92
2018-10-03T04:19:26.428Z,99647.08
2018-10-03T04:21:56.440Z,99641.01
2018-10-03T04:24:26.884Z,99641.16
2018-10-03T04:26:57.810Z,99647.31
2018-10-03T04:29:28.312Z,99645.25
2018-10-03T04:31:58.368Z,99646.05
2018-10-03T04:34:28.950Z,99649.55
2018-10-03T04:36:58.951Z,99646.59
2018-10-03T04:39:29.580Z,99653.17
2018-10-03T04:41:59.753Z,99669.02
2018-10-03T04:44:29.520Z,99668.52
2018-10-03T04:47:00.204Z,99674.13
2018-10-03T04:49:30.733Z,99673.23
2018-10-03T04:52:00.468Z,99672.97
2018-10-03T04:54:30.399Z,99676.97
2018-10-03T04:57:00.446Z,99676.88
2018-10-03T04:59:30.021Z,99682.67
2018-10-03T05:01:59.819Z,99679.09
2018-10-03T05:04:30.029Z,99681.39
2018-10-03T05:06:59.796Z,99681.33
2018-10-03T05:09:29.493Z,99689.45
2018-10-03T05:11:59.555Z,99693.30
2018-10-03T05:14:29.971Z,99696.29
2018-10-03T05:16:59.990Z,99694.56
2018-10-03T05:19:29.588Z,99689.00
2018-10-03T05:21:59.051Z,99703.67
2018-10-03T05:24:29.341Z,99707.20
2018-10-03T05:27:00.009Z,99713.02
2018-10-03T05:29:30.577Z,99709.53
2018-10-03T05:32:03.640Z,99716.20
2018-10-03T05:34:33.388Z,99724.73
2018-10-03T05:37:04.375Z,99728.53
2018-10-03T05:39:34.347Z,99724.08
2018-10-03T05:42:04.200Z,99730.54
2018-10-03T05:44:35.441Z,99733.31
2018-10-03T05:47:05.574Z,99722.34
2018-10-03T05:49:35.381Z,99727.61
2018-10-03T05:52:06.396Z,99728.05
2018-10-03T05:54:36.241Z,99724.80
2018-10-03T05:57:06.257Z,99690.20
2018-10-03T05:59:36.398Z,99729.39
2018-10-03T06:02:06.920Z,99719.80
2018-10-03T06:04:36.995Z,99721.94
2018-10-03T06:07:08.044Z,99697.81
2018-10-03T06:09:38.615Z,99719.61
2018-10-03T06:12:08.662Z,99720.04
2018-10-03T06:14:39.101Z,99729.68
2018-10-03T06:17:09.781Z,99734.94
2018-10-03T06:19:39.388Z,99737.27
2018-10-03T06:22:10.339Z,99746.12
2018-10-03T06:24:41.200Z,99751.26
2018-10-03T06:27:13.258Z,99754.47
2018-10-03T06:29:45.772Z,99766.61
2018-10-03T06:32:16.631Z,99764.91
2018-10-03T06:34:46.484Z,99775.36
2018-10-03T06:37:17.747Z,99781.37
2018-10-03T06:39:47.739Z,99785.64
2018-10-03T06:42:17.247Z,99788.19
2018-10-03T06:44:47.937Z,99784.86
2018-10-03T06:47:17.739Z,99777.42
2018-10-03T06:49:47.380Z,99794.98
2018-10-03T06:52:18.454Z,99794.91
2018-10-03T06:54:50.491Z,99785.53
2018-10-03T06:57:21.441Z,99785.11
2018-10-03T06:59:51.033Z,99764.63
2018-10-03T07:02:22.851Z,99795.40
2018-10-03T07:04:53.012Z,99792.68
2018-10-03T07:07:22.724Z,99795.53
2018-10-03T07:09:52.643Z,99790.60
2018-10-03T07:12:56.096Z,99809.38
2018-10-03T07:15:27.662Z,99815.97
2018-10-03T07:17:59.607Z,99816.91
2018-10-03T07:20:29.733Z,99822.17
2018-10-03T07:22:59.884Z,99823.03
2018-10-03T07:25:30.559Z,99830.88
2018-10-03T07:28:00.476Z,99848.42
2018-10-03T07:30:30.992Z,99832.27
2018-10-03T07:33:00.671Z,99842.38
2018-10-03T07:35:30.996Z,99845.95
2018-10-03T07:38:03.738Z,99853.34
2018-10-03T07:40:34.390Z,99849.09
2018-10-03T07:43:07.241Z,99851.86
2018-10-03T07:45:40.508Z,99860.52
2018-10-03T07:48:10.731Z,99862.36
2018-10-03T07:50:43.594Z,99867.17
2018-10-03T07:53:14.086Z,99876.23
2018-10-03T07:55:44.142Z,99876.06
2018-10-03T07:58:16.745Z,99878.53
2018-10-03T08:00:48.070Z,99886.91
2018-10-03T08:03:20.411Z,99872.14
2018-10-03T08:05:57.184Z,99874.38
2018-10-03T08:08:27.417Z,99879.93
2018-10-03T08:10:58.331Z,99884.80
2018-10-03T08:13:28.178Z,99879.98
2018-10-03T08:16:00.671Z,99883.55
2018-10-03T08:18:30.402Z,99897.47
2018-10-03T08:21:00.224Z,99902.41
2018-10-03T08:23:29.810Z,99903.92
2018-10-03T08:26:01.971Z,99911.57
2018-10-03T08:28:31.729Z,99910.97
2018-10-03T08:31:10.366Z,99905.02
2018-10-03T08:33:40.856Z,99913.27
2018-10-03T08:36:12.086Z,99915.75
2018-10-03T08:38:42.027Z,99916.42
2018-10-03T08:41:12.633Z,99920.02
2018-10-03T08:43:42.673Z,99922.62
2018-10-03T08:46:13.220Z,99926.48
2018-10-03T08:48:47.471Z,99927.52
2018-10-03T08:51:18.635Z,99887.28
2018-10-03T08:53:49.545Z,99926.02
2018-10-03T08:56:20.551Z,99946.60
2018-10-03T08:58:53.345Z,99933.45
2018-10-03T09:01:24.767Z,99937.24
2018-10-03T09:03:58.062Z,99925.23
2018-10-03T09:06:33.145Z,99947.23
2018-10-03T09:15:17.200Z,99955.20
2018-10-03T09:17:47.003Z,99949.71
2018-10-03T09:20:21.503Z,99951.98
2018-10-03T09:22:51.105Z,99950.44
2018-10-03T09:25:23.868Z,99959.66
2018-10-03T09:27:55.150Z,99955.02
2018-10-03T09:30:25.349Z,99957.56
2018-10-03T09:32:56.390Z,99965.83
2018-10-03T09:35:26.343Z,99975.14
2018-10-03T09:37:56.242Z,99975.98
2018-10-03T09:40:25.770Z,99980.34
2018-10-03T09:42:56.719Z,99980.14
2018-10-03T09:45:27.287Z,99988.98
2018-10-03T09:47:58.153Z,99981.05
2018-10-03T09:50:28.590Z,99977.05
2018-10-03T09:52:58.743Z,99981.19
2018-10-03T09:55:34.574Z,99955.19
2018-10-03T09:58:05.523Z,99987.36
2018-10-03T10:00:41.948Z,99985.36
2018-10-03T10:03:13.274Z,100003.48
2018-10-03T10:05:43.532Z,99991.77
2018-10-03T10:08:14.081Z,99996.08
2018-10-03T10:10:44.922Z,99996.91
2018-10-03T10:13:15.836Z,100006.98
2018-10-03T10:15:46.352Z,100009.92
2018-10-03T10:18:16.917Z,100009.35
2018-10-03T10:20:55.855Z,99984.42
2018-10-03T10:23:27.813Z,100010.13
2018-10-03T10:25:58.887Z,100022.93
2018-10-03T10:28:31.382Z,100019.55
2018-10-03T10:31:03.072Z,100002.67
2018-10-03T10:33:36.988Z,100024.03
2018-10-03T10:36:07.603Z,100033.91
2018-10-03T10:38:38.952Z,100025.39
2018-10-03T10:41:15.450Z,100042.21
2018-10-03T10:43:45.807Z,100036.61
2018-10-03T10:46:18.847Z,100045.49
2018-10-03T10:48:50.097Z,100071.84
2018-10-03T10:51:19.900Z,100057.44
2018-10-03T10:53:49.890Z,100049.52
2018-10-03T10:56:19.888Z,100042.75
2018-10-03T10:58:49.651Z,100051.88
2018-10-03T11:01:21.473Z,100050.56
2018-10-03T11:03:51.889Z,100047.88
2018-10-03T11:06:21.610Z,100050.33
2018-10-03T11:08:51.843Z,100059.95
2018-10-03T11:11:21.462Z,100057.59
2018-10-03T11:13:53.506Z,100054.98
2018-10-03T11:16:23.271Z,100056.33
2018-10-03T11:18:54.657Z,100056.11
2018-10-03T11:21:25.626Z,100063.76
2018-10-03T11:23:56.356Z,100059.75
2018-10-03T11:26:27.369Z,100066.27
2018-10-03T11:28:56.976Z,100064.17
2018-10-03T11:31:27.786Z,100066.56
2018-10-03T11:33:58.145Z,100067.21
2018-10-03T11:36:27.965Z,100073.72
2018-10-03T11:38:58.881Z,100081.97
2018-10-03T11:41:28.828Z,100089.62
2018-10-03T11:43:58.745Z,100088.09
2018-10-03T11:46:28.609Z,100098.95
2018-10-03T11:48:58.497Z,100095.67
2018-10-03T11:51:28.396Z,100086.16
2018-10-03T11:54:03.713Z,100094.95
2018-10-03T11:56:33.517Z,100080.95
2018-10-03T11:59:03.584Z,100083.51
2018-10-03T12:01:33.188Z,100089.19
2018-10-03T12:04:03.679Z,100098.52
2018-10-03T12:06:33.998Z,100091.27
2018-10-03T12:09:06.228Z,100086.81
2018-10-03T12:11:36.950Z,100086.67
2018-10-03T12:14:08.475Z,100091.94
2018-10-03T12:16:39.386Z,100094.72
2018-10-03T12:19:10.722Z,100110.33
2018-10-03T12:21:42.070Z,100107.33
2018-10-03T12:24:13.059Z,100120.01
2018-10-03T12:26:43.700Z,100109.97
2018-10-03T12:29:14.063Z,100115.33
2018-10-03T12:31:43.861Z,100106.05
2018-10-03T12:34:16.317Z,100113.84
2018-10-03T12:36:45.930Z,100112.69
2018-10-03T12:39:15.978Z,100109.03
2018-10-03T12:41:46.187Z,100112.34
2018-10-03T12:44:16.137Z,100127.79
2018-10-03T12:46:45.889Z,100120.91
2018-10-03T12:49:16.573Z,100123.83
2018-10-03T12:51:46.168Z,100112.30
2018-10-03T12:54:15.985Z,100110.88
2018-10-03T12:56:46.275Z,100112.14
2018-10-03T12:59:16.500Z,100106.20
2018-10-03T13:01:48.248Z,100101.58
2018-10-03T13:04:18.240Z,100108.13
2018-10-03T13:06:47.794Z,100117.14
2018-10-03T13:09:17.457Z,100115.47
2018-10-03T13:11:47.861Z,100120.88
2018-10-03T13:14:20.049Z,100116.48
2018-10-03T13:16:50.682Z,100124.99
2018-10-03T13:19:20.814Z,100120.36
2018-10-03T13:21:50.698Z,100117.30
2018-10-03T13:24:20.958Z,100134.67
2018-10-03T13:28:58.941Z,100114.38
2018-10-03T13:31:29.441Z,100124.98
2018-10-03T13:33:59.519Z,100118.84
2018-10-03T13:36:29.403Z,100121.53
2018-10-03T13:39:00.405Z,100083.77
2018-10-03T13:41:30.911Z,100118.95
2018-10-03T13:44:02.999Z,100121.70
2018-10-03T13:46:34.662Z,100130.66
2018-10-03T13:49:04.707Z,100123.19
2018-10-03T13:51:34.846Z,100127.67
2018-10-03T13:54:06.893Z,100133.23
2018-10-03T13:56:43.663Z,100125.56
2018-10-03T13:59:14.088Z,100129.34
2018-10-03T14:01:45.309Z,100107.58
2018-10-03T14:04:15.939Z,100128.86
2018-10-03T14:06:46.841Z,100126.21
2018-10-03T14:09:20.315Z,100129.52
2018-10-03T14:11:53.876Z,100120.72
2018-10-03T14:14:28.773Z,100121.51
2018-10-03T14:17:06.755Z,100119.99
2018-10-03T14:22:18.897Z,100094.03
2018-10-03T14:24:56.769Z,100136.89
2018-10-03T14:27:33.986Z,100141.60
2018-10-03T14:30:06.672Z,100141.66
2018-10-03T14:32:39.176Z,100133.53
2018-10-03T14:35:11.011Z,100104.95
2018-10-03T14:37:42.493Z,100133.44
2018-10-03T14:40:18.937Z,100136.85
2018-10-03T14:42:51.522Z,100135.96
2018-10-03T14:45:22.422Z,100116.28
2018-10-03T14:47:54.185Z,100158.09
2018-10-03T14:50:23.910Z,100149.45
2018-10-03T14:52:56.775Z,100149.08
2018-10-03T14:55:27.405Z,100151.38
2018-10-03T14:57:58.484Z,100150.89
2018-10-03T15:00:33.674Z,100145.97
2018-10-03T15:03:10.551Z,100129.89
2018-10-03T15:05:44.762Z,100151.38
2018-10-03T15:08:14.646Z,100158.87
2018-10-03T15:10:55.766Z,100164.64
2018-10-03T15:13:33.416Z,100161.12
2018-10-03T15:16:09.161Z,100175.87
2018-10-03T15:18:41.588Z,100168.35
2018-10-03T15:21:33.109Z,100184.14
2018-10-03T15:24:12.427Z,100178.08
2018-10-03T15:26:47.824Z,100183.48
2018-10-03T15:29:21.745Z,100187.25
2018-10-03T15:31:57.527Z,100188.45
2018-10-03T15:34:30.494Z,100187.25
2018-10-03T15:37:02.793Z,100142.10
2018-10-03T15:39:34.510Z,100197.72
2018-10-03T15:42:08.216Z,100196.71
2018-10-03T15:44:40.655Z,100196.47
2018-10-03T15:47:11.118Z,100192.87
2018-10-03T15:49:43.849Z,100204.44
2018-10-03T15:52:14.053Z,100206.52
2018-10-03T15:54:45.950Z,100209.33
2018-10-03T15:57:16.081Z,100220.84
2018-10-03T15:59:56.348Z,100221.95
2018-10-03T16:02:37.622Z,100225.20
2018-10-03T16:05:10.387Z,100223.66
2018-10-03T16:07:41.581Z,100224.55
2018-10-03T16:10:12.429Z,100232.11
2018-10-03T16:12:43.575Z,100231.81
2018-10-03T16:15:14.141Z,100236.73
2018-10-03T16:17:45.256Z,100230.51
2018-10-03T16:20:16.578Z,100235.12
2018-10-03T16:22:47.032Z,100236.30
2018-10-03T16:25:19.554Z,100236.12
2018-10-03T16:27:56.860Z,100237.08
2018-10-03T16:30:29.055Z,100247.85
2018-10-03T16:33:02.777Z,100247.80
2018-10-03T16:35:34.844Z,100256.28
2018-10-03T16:38:08.570Z,100257.30
2018-10-03T16:40:44.014Z,100235.72
2018-10-03T16:43:16.856Z,100266.77
2018-10-03T16:45:46.795Z,100272.96
2018-10-03T16:48:18.555Z,100268.23
2018-10-03T16:50:50.627Z,100271.11
2018-10-03T16:53:22.830Z,100282.47
2018-10-03T16:55:54.247Z,100279.67
2018-10-03T16:58:23.995Z,100294.34
2018-10-03T17:00:54.010Z,100286.81
2018-10-03T17:03:24.255Z,100292.25
2018-10-03T17:05:55.512Z,100291.78
2018-10-03T17:08:31.048Z,100293.20
2018-10-03T17:11:05.333Z,100296.38
2018-10-03T17:13:35.686Z,100299.25
2018-10-03T17:16:09.518Z,100300.52
2018-10-03T17:18:41.274Z,100299.61
2018-10-03T17:21:21.633Z,100308.45
2018-10-03T17:23:53.369Z,100310.27
2018-10-03T17:26:23.432Z,100312.22
2018-10-03T17:28:53.704Z,100316.90
2018-10-03T17:31:25.474Z,100327.45
2018-10-03T17:34:05.502Z,100333.34
2018-10-03T17:36:43.875Z,100331.91
2018-10-03T17:39:26.329Z,100345.51
2018-10-03T17:42:02.507Z,100333.66
2018-10-03T17:44:32.641Z,100338.13
2018-10-03T17:47:10.115Z,100341.89
2018-10-03T17:49:42.833Z,100345.84
2018-10-03T17:52:13.632Z,100346.65
2018-10-03T17:54:47.960Z,100355.27
2018-10-03T17:57:23.550Z,100357.78
2018-10-03T17:59:57.887Z,100357.48
2018-10-03T18:02:35.200Z,100353.34
2018-10-03T18:05:07.439Z,100361.11
2018-10-03T18:07:44.640Z,100362.54
2018-10-03T18:10:32.585Z,100330.47
2018-10-03T18:13:07.768Z,100361.22
2018-10-03T18:15:41.175Z,100363.64
2018-10-03T18:18:19.577Z,100370.01
2018-10-03T18:20:55.176Z,100365.94
2018-10-03T18:23:29.790Z,100368.67
2018-10-03T18:26:01.433Z,100360.77
2018-10-03T18:28:42.528Z,100365.22
2018-10-03T18:31:13.179Z,100363.81
2018-10-03T18:33:48.831Z,100355.09
2018-10-03T18:36:20.161Z,100368.75
2018-10-03T18:38:58.068Z,100367.31
2018-10-03T18:41:30.258Z,100371.95
2018-10-03T18:44:12.141Z,100377.59
2018-10-03T18:46:47.277Z,100341.09
2018-10-03T18:49:21.178Z,100371.26
2018-10-03T18:52:03.902Z,100378.39
2018-10-03T18:54:34.985Z,100369.91
2018-10-03T18:57:15.848Z,100385.70
2018-10-03T19:02:49.415Z,100390.59
2018-10-03T19:05:21.342Z,100394.89
2018-10-03T19:07:52.985Z,100371.64
2018-10-03T19:10:29.524Z,100366.67
2018-10-03T19:13:01.958Z,100401.45
2018-10-03T19:15:36.619Z,100400.83
2018-10-03T19:18:20.503Z,100407.84
2018-10-03T19:21:00.300Z,100416.44
2018-10-03T19:23:42.644Z,100419.04
2018-10-03T19:26:28.534Z,100424.07
2018-10-03T19:29:00.307Z,100421.95
2018-10-03T19:31:37.750Z,100414.56
2018-10-03T19:34:13.127Z,100421.38
2018-10-03T19:36:47.596Z,100423.01
2018-10-03T19:39:19.296Z,100423.82
2018-10-03T19:41:53.355Z,100436.95
2018-10-03T19:44:28.344Z,100439.58
2018-10-03T19:47:02.989Z,100443.67
2018-10-03T19:49:38.831Z,100441.73
2018-10-03T19:52:13.726Z,100447.97
2018-10-03T19:54:46.652Z,100454.45
2018-10-03T19:57:18.573Z,100415.38
2018-10-03T19:59:52.500Z,100445.97
2018-10-03T20:02:29.921Z,100447.78
2018-10-03T20:05:03.514Z,100443.16
2018-10-03T20:07:46.168Z,100446.91
2018-10-03T20:10:24.502Z,100442.91
2018-10-03T20:13:01.627Z,100413.75
2018-10-03T20:15:33.588Z,100437.77
2018-10-03T20:18:08.888Z,100406.30
2018-10-03T20:20:45.053Z,100443.23
2018-10-03T20:23:25.303Z,100435.61
2018-10-03T20:26:09.918Z,100442.52
2018-10-03T20:28:46.999Z,100445.55
2018-10-03T20:31:23.755Z,100457.28
2018-10-03T20:33:58.895Z,100459.94
2018-10-03T20:36:35.513Z,100456.19
2018-10-03T20:39:23.111Z,100419.91
2018-10-03T20:41:56.836Z,100458.16
2018-10-03T20:44:29.999Z,100419.11
2018-10-03T20:47:03.095Z,100451.59
2018-10-03T20:49:39.620Z,100465.69
2018-10-03T20:52:10.535Z,100457.34
2018-10-03T20:58:04.900Z,100457.53
2018-10-03T21:00:38.806Z,100458.77
2018-10-03T21:08:39.235Z,100466.08
2018-10-03T21:11:15.731Z,100461.41
2018-10-03T21:13:47.688Z,100463.14
2018-10-03T21:16:22.006Z,100458.20
2018-10-03T21:18:56.629Z,100462.47
2018-10-03T21:21:27.584Z,100466.76
2018-10-03T21:24:00.855Z,100465.77
2018-10-03T21:26:32.364Z,100463.95
2018-10-03T21:29:05.410Z,100468.14
2018-10-03T21:31:37.280Z,100470.27
2018-10-03T21:34:10.456Z,100466.89
2018-10-03T21:36:41.174Z,100465.00
2018-10-03T21:39:22.047Z,100464.44
2018-10-03T21:42:02.549Z,100462.77
2018-10-03T21:44:35.561Z,100465.82
2018-10-03T21:47:09.800Z,100461.14
2018-10-03T21:49:45.270Z,100464.44
2018-10-03T21:52:22.308Z,100466.80
2018-10-03T21:55:00.059Z,100455.33
2018-10-03T21:57:35.780Z,100452.24
2018-10-03T22:00:15.688Z,100457.11
2018-10-03T22:02:50.227Z,100448.76
2018-10-03T22:05:25.766Z,100452.14
2018-10-03T22:07:58.605Z,100453.83
2018-10-03T22:10:36.148Z,100457.87
2018-10-03T22:16:10.916Z,100452.92
2018-10-03T22:18:41.607Z,100455.60
2018-10-03T22:21:15.442Z,100429.91
2018-10-03T22:23:49.651Z,100457.86
2018-10-03T22:26:19.904Z,100456.03
2018-10-03T22:28:50.471Z,100455.67
2018-10-03T22:31:21.792Z,100452.22
2018-10-03T22:33:53.066Z,100446.51
2018-10-03T22:36:25.483Z,100445.08
2018-10-03T22:38:57.269Z,100448.73
2018-10-03T22:41:27.726Z,100447.77
2018-10-03T22:43:58.477Z,100442.77
2018-10-03T22:46:30.739Z,100450.02
2018-10-03T22:49:02.282Z,100450.66
2018-10-03T22:51:32.921Z,100443.85
2018-10-03T22:54:03.911Z,100458.46
2018-10-03T22:56:34.492Z,100456.78
2018-10-03T22:59:09.551Z,100459.40
2018-10-03T23:01:39.388Z,100460.39
2018-10-03T23:04:09.851Z,100460.60
2018-10-03T23:06:40.655Z,100460.77
2018-10-03T23:09:12.535Z,100467.36
2018-10-03T23:11:42.883Z,100476.56
2018-10-03T23:15:38.744Z,100476.61
2018-10-03T23:18:08.937Z,100472.76
2018-10-03T23:20:40.125Z,100474.44
2018-10-03T23:23:11.188Z,100478.58
2018-10-03T23:25:40.852Z,100479.19
2018-10-03T23:28:14.943Z,100474.55
2018-10-03T23:30:44.927Z,100477.03
2018-10-03T23:33:17.582Z,100477.48
2018-10-03T23:35:47.805Z,100479.77
2018-10-03T23:38:21.170Z,100487.02
2018-10-03T23:40:52.949Z,100488.02
2018-10-03T23:43:25.577Z,100491.92
2018-10-03T23:45:56.821Z,100495.47
2018-10-03T23:48:27.425Z,100503.27
2018-10-03T23:51:00.352Z,100503.55
2018-10-03T23:53:30.533Z,100506.50
2018-10-03T23:56:01.197Z,100509.17
2018-10-03T23:58:31.866Z,100513.61
